UUDD/DME METAR and TAF weather

Enter ICAO airport designator
Station Type Date Time Source
UUDD METAR 2019/06/16 20:30 UTC NOAA

UUDD 162030Z VRB01MPS CAVOK 15/10 Q1015 R88/CLRD70 NOSIG


Station Type Date Time Source
UUDD Decoded METAR 2019/06/16 20:30 UTC NOAA

Moscow / Domodedovo, Russia (UUDD) 55-24N 037-54E
Jun 16, 2019 - 04:30 PM EDT / 2019.06.16 2030 UTC
Wind: Variable at 2 MPH (2 KT):0
Visibility: greater than 7 mile(s):0
Temperature: 59 F (15 C)
Dew Point: 50 F (10 C)
Relative Humidity: 72%
Pressure (altimeter): 29.97 in. Hg (1015 hPa)
ob: UUDD 162030Z VRB01MPS CAVOK 15/10 Q1015 R88/CLRD70 NOSIG
cycle: 20

Station Type Date Time Source
UUDD TAF 2019/06/16 21:21 UTC NOAA

TAF UUDD 161957Z 1621/1803 25003MPS 8000 SCT030 TX25/1712Z TN11/1701Z PROB40
TEMPO 1622/1704 0300 FG FEW002
TEMPO 1707/1715 28008MPS

Example: see airport list